LDSP METAR and TAF | Updated Today

LDSP METAR

Split Airport

Observation time: 9 min. ago

LDSP 062000Z 27003KT 230V310 CAVOK 20/14 Q1026 NOSIG

Need help? Read our tutorial on how to read METARs or read the parsed version below.

Split Airport (LDSP) METAR

  • Weather conditions on Thu, 06 Oct 2022 20:00:00 +0000 (9 min. ago):
  • Present conditions: Dry
  • Clouds: Clear skies
  • Visibility: Greater than 10 km
  • Wind: 270 degrees at 3 knots
  • Temperature: 20 celsius
  • Dew point: 14 celsius
  • Pressure: 1026 millibars
  • Remarks: None


Useful to know...

LDSP TAF

Split Airport

TAF LDSP 061725Z 0618/0718 32004KT CAVOK TX24/0713Z TN15/0704Z PROB40 0711/0715 23007KT
Observation time: 2:44 hr. ago
Need help? Read our tutorial on how to read TAFs or read the parsed version below.

Parsed version of TAF for Split Airport (LDSP)

  • From 06 October at 18:00 UTC, to day 07 of the month at 18:00 UTC
  • Visibility: Greater than 10 km
  • Wind: 320 degrees at 4
  • From 07 October at 11:00 UTC, to day 07 of the month at 15:00 UTC
    Probability of 40%
  • Wind: 230 degrees at 7